Time;durP1;ratioP1;P1;durP2;ratioP2;P2;SDS_P1;SDS_P2;PMS_P1;PMS_P2;Temp;Humidity;BMP_temperature;BMP_pressure;BME280_temperature;BME280_humidity;BME280_pressure;Samples;Min_cycle;Max_cycle;Signal;HPM_P1;HPM_P2
2021/12/23 00:00:43;;;;;;;19.5;7.9;;;;;;;;;;;;;
2021/12/23 00:03:08;;;;;;;9.9;5.6;;;;;;;;;;;;;
2021/12/23 00:05:35;;;;;;;8.5;5.1;;;;;;;;;;;;;
2021/12/23 00:08:00;;;;;;;8.5;5.1;;;;;;;;;;;;;
2021/12/23 00:10:26;;;;;;;7.6;4.5;;;;;;;;;;;;;
2021/12/23 00:12:50;;;;;;;24.5;12.7;;;;;;;;;;;;;
2021/12/23 00:15:28;;;;;;;14.2;7.6;;;;;;;;;;;;;
2021/12/23 00:17:56;;;;;;;12.5;5.7;;;;;;;;;;;;;
2021/12/23 00:24:58;;;;;;;9.7;5.1;;;;;;;;;;;;;
2021/12/23 00:27:24;;;;;;;11.4;5.4;;;;;;;;;;;;;
2021/12/23 00:29:49;;;;;;;10.4;5.8;;;;;;;;;;;;;
2021/12/23 00:32:14;;;;;;;7.4;4.5;;;;;;;;;;;;;
2021/12/23 00:34:40;;;;;;;7.8;4.5;;;;;;;;;;;;;
2021/12/23 00:37:07;;;;;;;8.5;4.8;;;;;;;;;;;;;
2021/12/23 00:39:30;;;;;;;8.5;4.9;;;;;;;;;;;;;
2021/12/23 00:42:05;;;;;;;14.9;7.7;;;;;;;;;;;;;
2021/12/23 00:44:20;;;;;;;9.3;5.1;;;;;;;;;;;;;
2021/12/23 00:46:45;;;;;;;9.1;5.2;;;;;;;;;;;;;
2021/12/23 00:49:11;;;;;;;8.4;5.3;;;;;;;;;;;;;
2021/12/23 00:51:36;;;;;;;9.2;5;;;;;;;;;;;;;
2021/12/23 00:54:04;;;;;;;20.5;10.3;;;;;;;;;;;;;
2021/12/23 00:56:26;;;;;;;8.5;4.9;;;;;;;;;;;;;
2021/12/23 00:58:51;;;;;;;10.1;4.9;;;;;;;;;;;;;
2021/12/23 01:01:17;;;;;;;8.2;4.7;;;;;;;;;;;;;
2021/12/23 01:03:42;;;;;;;8.1;4.3;;;;;;;;;;;;;
2021/12/23 01:06:07;;;;;;;8.4;4.8;;;;;;;;;;;;;
2021/12/23 01:08:32;;;;;;;7.8;4.5;;;;;;;;;;;;;
2021/12/23 01:10:59;;;;;;;6.5;4;;;;;;;;;;;;;
2021/12/23 01:13:26;;;;;;;8.6;5.1;;;;;;;;;;;;;
2021/12/23 01:16:47;;;;;;;7.8;4.8;;;;;;;;;;;;;
2021/12/23 01:18:18;;;;;;;7.6;4.6;;;;;;;;;;;;;
2021/12/23 01:20:38;;;;;;;6.4;4.2;;;;;;;;;;;;;
2021/12/23 01:23:02;;;;;;;9.3;4.8;;;;;;;;;;;;;
2021/12/23 01:25:28;;;;;;;10.8;4.9;;;;;;;;;;;;;
2021/12/23 01:27:54;;;;;;;8.6;4.6;;;;;;;;;;;;;
2021/12/23 01:30:19;;;;;;;8.2;4.1;;;;;;;;;;;;;
2021/12/23 01:32:45;;;;;;;5.8;3.5;;;;;;;;;;;;;
2021/12/23 01:35:10;;;;;;;7.4;4.1;;;;;;;;;;;;;
2021/12/23 01:37:36;;;;;;;7.5;3.6;;;;;;;;;;;;;
2021/12/23 01:40:01;;;;;;;6.3;3.6;;;;;;;;;;;;;
2021/12/23 01:42:27;;;;;;;8.4;4;;;;;;;;;;;;;
2021/12/23 01:44:52;;;;;;;8;3.9;;;;;;;;;;;;;
2021/12/23 01:47:17;;;;;;;6;3.2;;;;;;;;;;;;;
2021/12/23 01:49:42;;;;;;;4.8;3.1;;;;;;;;;;;;;
2021/12/23 01:52:07;;;;;;;6.2;3.6;;;;;;;;;;;;;
2021/12/23 01:54:33;;;;;;;4.8;3.2;;;;;;;;;;;;;
2021/12/23 01:56:59;;;;;;;6.5;3.7;;;;;;;;;;;;;
2021/12/23 01:59:23;;;;;;;5.5;3.2;;;;;;;;;;;;;
2021/12/23 02:01:48;;;;;;;4.8;3;;;;;;;;;;;;;
2021/12/23 02:04:14;;;;;;;5.6;3.7;;;;;;;;;;;;;
2021/12/23 02:06:40;;;;;;;6.2;3.9;;;;;;;;;;;;;
2021/12/23 02:09:05;;;;;;;6.9;3.9;;;;;;;;;;;;;
2021/12/23 02:11:30;;;;;;;6.1;3.7;;;;;;;;;;;;;
2021/12/23 02:13:57;;;;;;;7.6;4.4;;;;;;;;;;;;;
2021/12/23 02:16:22;;;;;;;5.9;3.5;;;;;;;;;;;;;
2021/12/23 02:18:48;;;;;;;5.6;3.8;;;;;;;;;;;;;
2021/12/23 02:21:13;;;;;;;8.2;3.9;;;;;;;;;;;;;
2021/12/23 02:23:39;;;;;;;5.7;3.8;;;;;;;;;;;;;
2021/12/23 02:26:04;;;;;;;6.3;3.4;;;;;;;;;;;;;
2021/12/23 02:28:30;;;;;;;5.2;3.2;;;;;;;;;;;;;
2021/12/23 02:30:55;;;;;;;5.8;3.2;;;;;;;;;;;;;
2021/12/23 02:33:21;;;;;;;7.4;3.6;;;;;;;;;;;;;
2021/12/23 02:35:46;;;;;;;9.3;3.7;;;;;;;;;;;;;
2021/12/23 02:38:12;;;;;;;6.8;3.5;;;;;;;;;;;;;
2021/12/23 02:40:37;;;;;;;5.6;3.3;;;;;;;;;;;;;
2021/12/23 02:43:02;;;;;;;6.8;3.3;;;;;;;;;;;;;
2021/12/23 02:45:28;;;;;;;5.7;3.2;;;;;;;;;;;;;
2021/12/23 02:47:53;;;;;;;5.1;2.9;;;;;;;;;;;;;
2021/12/23 02:50:18;;;;;;;4.9;2.8;;;;;;;;;;;;;
2021/12/23 02:52:43;;;;;;;4.8;3.2;;;;;;;;;;;;;
2021/12/23 02:55:09;;;;;;;4.3;2.7;;;;;;;;;;;;;
2021/12/23 02:57:34;;;;;;;5.2;2.9;;;;;;;;;;;;;
2021/12/23 03:00:00;;;;;;;5.2;2.6;;;;;;;;;;;;;
2021/12/23 03:02:25;;;;;;;4.5;2.8;;;;;;;;;;;;;
2021/12/23 03:04:50;;;;;;;3.4;2.2;;;;;;;;;;;;;
2021/12/23 03:07:15;;;;;;;4.3;2.5;;;;;;;;;;;;;
2021/12/23 03:09:40;;;;;;;5.1;2.5;;;;;;;;;;;;;
2021/12/23 03:12:05;;;;;;;3.8;2.4;;;;;;;;;;;;;
2021/12/23 03:14:30;;;;;;;3.6;2.3;;;;;;;;;;;;;
2021/12/23 03:16:57;;;;;;;4.3;2.3;;;;;;;;;;;;;
2021/12/23 03:19:23;;;;;;;2.9;1.9;;;;;;;;;;;;;
2021/12/23 03:21:48;;;;;;;3.8;1.9;;;;;;;;;;;;;
2021/12/23 03:24:15;;;;;;;3.7;2;;;;;;;;;;;;;
2021/12/23 03:26:39;;;;;;;3.7;1.9;;;;;;;;;;;;;
2021/12/23 03:29:07;;;;;;;4.5;2.4;;;;;;;;;;;;;
2021/12/23 03:31:29;;;;;;;5.4;2.5;;;;;;;;;;;;;
2021/12/23 03:33:54;;;;;;;3.6;1.8;;;;;;;;;;;;;
2021/12/23 03:36:20;;;;;;;2.9;1.8;;;;;;;;;;;;;
2021/12/23 03:38:46;;;;;;;3;2;;;;;;;;;;;;;
2021/12/23 03:41:11;;;;;;;3.7;2.2;;;;;;;;;;;;;
2021/12/23 03:43:37;;;;;;;2.2;1.5;;;;;;;;;;;;;
2021/12/23 03:46:02;;;;;;;2.8;1.6;;;;;;;;;;;;;
2021/12/23 03:48:28;;;;;;;3.1;1.9;;;;;;;;;;;;;
2021/12/23 03:50:53;;;;;;;2.9;1.6;;;;;;;;;;;;;
2021/12/23 03:53:19;;;;;;;1.6;1.4;;;;;;;;;;;;;
2021/12/23 03:55:44;;;;;;;3.2;1.9;;;;;;;;;;;;;
2021/12/23 03:58:09;;;;;;;3.1;1.7;;;;;;;;;;;;;
2021/12/23 04:02:31;;;;;;;3.3;2;;;;;;;-4.75;79.11328;938.8031;;;;
2021/12/23 04:04:56;;;;;;;2.9;2.2;;;;;;;-4.94;79.69531;938.803;;;;
2021/12/23 04:07:58;;;;;;;2.8;2.2;;;;;;;-5.02;80.23926;938.8016;;;;
2021/12/23 04:10:25;;;;;;;2.9;1.9;;;;;;;-4.9;80.18652;938.7863;;;;
2021/12/23 04:12:50;;;;;;;2.2;1.6;;;;;;;-4.84;79.69238;938.7608;;;;
2021/12/23 04:15:15;;;;;;;5.6;2.5;;;;;;;-4.82;79.52832;938.6469;;;;
2021/12/23 04:17:40;;;;;;;3.7;2.7;;;;;;;-4.77;79.45117;938.558;;;;
2021/12/23 04:20:15;;;;;;;3.3;2.7;;;;;;;-4.84;79.32715;938.6238;;;;
2021/12/23 04:22:35;;;;;;;2.7;2.2;;;;;;;-5.08;80.05273;938.6252;;;;
2021/12/23 04:25:00;;;;;;;3.7;2;;;;;;;-5.07;80.30762;938.6269;;;;
2021/12/23 04:27:48;;;;;;;3.2;2.2;;;;;;;-5.06;80.14453;938.6461;;;;
2021/12/23 04:30:23;;;;;;;2.5;2;;;;;;;-5.01;79.94434;938.5421;;;;
2021/12/23 04:32:48;;;;;;;3;1.7;;;;;;;-4.77;78.75684;938.549;;;;
2021/12/23 04:35:16;;;;;;;1.5;1.3;;;;;;;-4.33;74.9375;938.4817;;;;
2021/12/23 04:37:42;;;;;;;2.7;1.4;;;;;;;-4.26;76.4834;938.4614;;;;
2021/12/23 04:40:10;;;;;;;2.4;1.6;;;;;;;-4.25;76.6709;938.4011;;;;
2021/12/23 04:42:34;;;;;;;3.9;2.2;;;;;;;-4.31;76.57422;938.3855;;;;
2021/12/23 04:45:00;;;;;;;4.8;2.9;;;;;;;-4.38;77.13477;938.3529;;;;
2021/12/23 04:47:25;;;;;;;5;3;;;;;;;-4.52;77.78027;938.3105;;;;
2021/12/23 04:49:50;;;;;;;4.1;2.7;;;;;;;-4.57;78.32129;938.2541;;;;
2021/12/23 04:52:16;;;;;;;5.5;2.8;;;;;;;-4.61;78.29199;938.1351;;;;
2021/12/23 04:54:41;;;;;;;4.6;2.4;;;;;;;-4.58;77.90039;938.1661;;;;
2021/12/23 04:57:07;;;;;;;4.9;3;;;;;;;-4.59;78.00879;938.1182;;;;
2021/12/23 04:59:32;;;;;;;12.1;6.8;;;;;;;-4.64;78.42871;938.0835;;;;
2021/12/23 05:01:58;;;;;;;15.1;8.6;;;;;;;-4.68;78.6416;938.0933;;;;
2021/12/23 05:04:23;;;;;;;9.7;6.3;;;;;;;-4.94;79.96875;938.0513;;;;
2021/12/23 05:06:50;;;;;;;8.1;5.1;;;;;;;-5.04;80.86328;938.0178;;;;
2021/12/23 05:09:15;;;;;;;9.1;5.1;;;;;;;-5.11;81.23633;937.9799;;;;
2021/12/23 05:11:44;;;;;;;9.8;5;;;;;;;-5.13;81.43066;938.0006;;;;
2021/12/23 05:14:07;;;;;;;8.9;4.2;;;;;;;-5.03;80.83203;937.9052;;;;
2021/12/23 05:16:42;;;;;;;11.9;5.1;;;;;;;-5.02;80.78027;937.7997;;;;
2021/12/23 05:19:11;;;;;;;11;5.4;;;;;;;-5.03;81.06348;937.794;;;;
2021/12/23 05:21:37;;;;;;;9;4.9;;;;;;;-5.11;81.54395;937.7536;;;;
2021/12/23 05:24:06;;;;;;;16;6.2;;;;;;;-5.2;81.82324;937.7321;;;;
2021/12/23 05:26:33;;;;;;;22;9;;;;;;;-5.15;81.7998;937.7028;;;;
2021/12/23 05:28:58;;;;;;;30.3;10.5;;;;;;;-5.09;81.63574;937.6624;;;;
2021/12/23 05:31:28;;;;;;;23.3;8.5;;;;;;;-5.01;81.43164;937.6652;;;;
2021/12/23 05:33:54;;;;;;;20;7.9;;;;;;;-4.85;81.13086;937.6113;;;;
2021/12/23 05:36:18;;;;;;;28.1;11.6;;;;;;;-4.84;80.93457;937.5435;;;;
2021/12/23 05:38:44;;;;;;;28.9;13.5;;;;;;;-4.74;80.50391;937.5305;;;;
2021/12/23 05:41:09;;;;;;;20.2;9.6;;;;;;;-4.79;80.23145;937.5733;;;;
2021/12/23 05:43:34;;;;;;;15.9;9;;;;;;;-4.81;80.41309;937.4822;;;;
2021/12/23 05:46:00;;;;;;;11.6;5.7;;;;;;;-4.84;80.57324;937.5029;;;;
2021/12/23 05:48:25;;;;;;;9.8;4.9;;;;;;;-4.73;80.22852;937.4568;;;;
2021/12/23 05:50:50;;;;;;;8.2;4.3;;;;;;;-4.79;80.38574;937.4256;;;;
2021/12/23 05:53:17;;;;;;;6;3.8;;;;;;;-4.9;80.45996;937.4939;;;;
2021/12/23 05:55:42;;;;;;;5.9;3.1;;;;;;;-4.93;80.89746;937.4908;;;;
2021/12/23 05:58:07;;;;;;;9.6;5.7;;;;;;;-5;81.13574;937.5026;;;;
2021/12/23 06:00:32;;;;;;;14.2;7.1;;;;;;;-4.86;81.13086;937.486;;;;
2021/12/23 06:02:57;;;;;;;18;8;;;;;;;-4.7;80.47852;937.5598;;;;
2021/12/23 06:05:23;;;;;;;16.9;8.6;;;;;;;-4.54;79.76953;937.5151;;;;
2021/12/23 06:08:00;;;;;;;18.8;8;;;;;;;-4.68;80.04297;937.5164;;;;
2021/12/23 06:10:30;;;;;;;20.6;9.5;;;;;;;-4.8;80.29395;937.5685;;;;
2021/12/23 06:12:57;;;;;;;24.7;10.6;;;;;;;-4.99;81.18164;937.5262;;;;
2021/12/23 06:15:22;;;;;;;19.5;9;;;;;;;-5.04;81.34766;937.5226;;;;
2021/12/23 06:17:48;;;;;;;21.1;10.2;;;;;;;-4.94;81.26758;937.6418;;;;
2021/12/23 06:20:15;;;;;;;18.2;9.9;;;;;;;-4.87;80.81934;937.6469;;;;
2021/12/23 06:22:40;;;;;;;24.1;12.7;;;;;;;-4.9;80.73535;937.7129;;;;
2021/12/23 06:25:08;;;;;;;24.1;15.5;;;;;;;-4.9;80.58301;937.6552;;;;
2021/12/23 06:27:33;;;;;;;23.7;15.7;;;;;;;-5.04;81.05078;937.6467;;;;
2021/12/23 06:29:58;;;;;;;19.4;12.4;;;;;;;-5.1;81.7334;937.7186;;;;
2021/12/23 06:32:25;;;;;;;19.1;10.4;;;;;;;-5.08;81.81348;937.7649;;;;
2021/12/23 06:34:50;;;;;;;16.2;8.8;;;;;;;-5.06;81.65234;937.7442;;;;
2021/12/23 06:37:15;;;;;;;12.4;7.3;;;;;;;-4.87;80.7627;937.6347;;;;
2021/12/23 06:39:41;;;;;;;11.1;6.2;;;;;;;-4.79;80.42773;937.663;;;;
2021/12/23 06:42:06;;;;;;;16.6;9;;;;;;;-4.87;80.24707;937.7708;;;;
2021/12/23 06:44:31;;;;;;;12.9;7.4;;;;;;;-4.87;80.5332;937.6869;;;;
2021/12/23 06:46:56;;;;;;;14.2;8;;;;;;;-4.87;80.23438;937.7264;;;;
2021/12/23 06:49:21;;;;;;;12.3;8.3;;;;;;;-4.78;80.1875;937.7227;;;;
2021/12/23 06:51:47;;;;;;;13.4;7.8;;;;;;;-4.69;79.75098;937.7111;;;;
2021/12/23 06:54:13;;;;;;;12.8;7.6;;;;;;;-4.82;80.22266;937.9138;;;;
2021/12/23 06:56:41;;;;;;;12.2;7.7;;;;;;;-4.85;80.4375;937.8669;;;;
2021/12/23 07:02:28;;;;;;;18.3;9.8;;;;;;;-4.85;80.75684;937.9267;;;;
2021/12/23 07:04:54;;;;;;;11.6;7.6;;;;;;;-4.9;80.83594;937.8219;;;;
2021/12/23 07:07:26;;;;;;;14.3;8.1;;;;;;;-4.91;81.20898;937.925;;;;
2021/12/23 07:09:45;;;;;;;13.5;8.2;;;;;;;-4.81;80.95313;937.8881;;;;
2021/12/23 07:12:10;;;;;;;13.1;8.3;;;;;;;-4.73;81.03418;937.8713;;;;
2021/12/23 07:14:35;;;;;;;21.5;11.8;;;;;;;-4.67;81.77246;937.861;;;;
2021/12/23 07:17:00;;;;;;;18.8;10.4;;;;;;;-4.62;81.61719;937.9698;;;;
2021/12/23 07:25:50;;;;;;;13.7;8.6;;;;;;;-4.87;80.5;938.0154;;;;
2021/12/23 07:28:15;;;;;;;20.2;11.5;;;;;;;-4.78;80.20898;937.9966;;;;
2021/12/23 07:30:41;;;;;;;23.3;13.1;;;;;;;-4.92;80.61035;937.9191;;;;
2021/12/23 07:33:06;;;;;;;19.6;11.4;;;;;;;-4.9;80.625;937.9691;;;;
2021/12/23 07:35:31;;;;;;;14.2;8.9;;;;;;;-4.84;80.66113;938.0222;;;;
2021/12/23 07:38:00;;;;;;;18.4;10.4;;;;;;;-4.76;80.48828;937.9367;;;;
2021/12/23 07:40:22;;;;;;;28.3;13.3;;;;;;;-4.69;80.13672;937.9333;;;;
2021/12/23 07:42:55;;;;;;;22.4;12.1;;;;;;;-4.6;79.78125;937.9373;;;;
2021/12/23 07:45:13;;;;;;;19.4;10.2;;;;;;;-4.61;79.6582;937.9575;;;;
2021/12/23 07:47:38;;;;;;;35.5;15.3;;;;;;;-4.55;80.25391;937.9306;;;;
2021/12/23 07:50:04;;;;;;;20.4;9.7;;;;;;;-4.37;79.57031;937.8394;;;;
2021/12/23 07:52:29;;;;;;;22.5;10.3;;;;;;;-4.29;79.17871;937.9334;;;;
2021/12/23 07:54:56;;;;;;;18.5;9.8;;;;;;;-4.24;79.19922;937.9715;;;;
2021/12/23 07:57:22;;;;;;;15.5;7.9;;;;;;;-4.25;79.03223;937.9606;;;;
2021/12/23 07:59:47;;;;;;;16.2;9.1;;;;;;;-4.24;78.93457;937.9327;;;;
2021/12/23 08:02:12;;;;;;;17.1;8.6;;;;;;;-4.11;78.44043;937.9727;;;;
2021/12/23 08:04:39;;;;;;;15.5;8.4;;;;;;;-4.06;78.49512;937.8837;;;;
2021/12/23 08:07:04;;;;;;;14.6;7.5;;;;;;;-4.06;79.03516;937.9833;;;;
2021/12/23 08:09:32;;;;;;;19.1;10.8;;;;;;;-4.04;79.5127;938.0035;;;;
2021/12/23 08:11:59;;;;;;;17;9.4;;;;;;;-3.68;78.5332;937.9639;;;;
2021/12/23 08:14:26;;;;;;;21.4;10.2;;;;;;;-3.26;76.37793;937.8477;;;;
2021/12/23 08:16:57;;;;;;;19.5;10.6;;;;;;;-2.73;73.80762;937.9422;;;;
2021/12/23 08:19:23;;;;;;;17.6;8.9;;;;;;;-2.12;71.07715;937.9002;;;;
2021/12/23 08:21:48;;;;;;;14.3;7.4;;;;;;;-1.28;67.95605;937.7745;;;;
2021/12/23 08:24:13;;;;;;;9.3;5.6;;;;;;;-0.75;64.33789;937.8884;;;;
2021/12/23 08:26:44;;;;;;;11.7;5;;;;;;;-0.55;63.70215;937.8276;;;;
2021/12/23 08:29:03;;;;;;;8.1;5.5;;;;;;;-0.62;63.47949;937.8762;;;;
2021/12/23 08:31:32;;;;;;;10.3;6.2;;;;;;;-0.81;64.59473;937.891;;;;
2021/12/23 08:33:57;;;;;;;10.1;6.2;;;;;;;-0.9;65.7832;937.9423;;;;
2021/12/23 08:39:37;;;;;;;12.3;8;;;;;;;0.3;61.60059;937.8721;;;;
2021/12/23 08:42:02;;;;;;;13.3;7.2;;;;;;;-0.61;63.34863;937.8689;;;;
2021/12/23 08:44:27;;;;;;;9.3;6.3;;;;;;;-1.03;65.88379;937.9299;;;;
2021/12/23 08:46:52;;;;;;;11.6;6.2;;;;;;;-1.49;67.85449;937.841;;;;
2021/12/23 08:49:19;;;;;;;12;5.9;;;;;;;-1.76;69.34277;937.9122;;;;
2021/12/23 08:51:44;;;;;;;9.4;6.1;;;;;;;-1.98;70.08203;937.8869;;;;
2021/12/23 08:54:10;;;;;;;11.2;6.9;;;;;;;-2.04;71.01367;937.8649;;;;
2021/12/23 08:56:35;;;;;;;11.5;7.4;;;;;;;-1.92;70.92383;937.8144;;;;
2021/12/23 08:59:02;;;;;;;11.3;6.9;;;;;;;-1.93;71.13184;937.7783;;;;
2021/12/23 09:01:35;;;;;;;12.4;7.6;;;;;;;-1.86;71.42285;937.7237;;;;
2021/12/23 09:04:00;;;;;;;16.2;8.5;;;;;;;-1.73;71.85449;937.6975;;;;
2021/12/23 09:06:25;;;;;;;18.3;11;;;;;;;-1.6;71.84473;937.687;;;;
2021/12/23 09:08:54;;;;;;;17.9;10.3;;;;;;;-1.3;70.16113;937.6778;;;;
2021/12/23 09:11:18;;;;;;;19.1;10.6;;;;;;;-0.99;69.28223;937.6682;;;;
2021/12/23 09:14:01;;;;;;;20.3;11.7;;;;;;;-1.01;69.56641;937.6286;;;;
2021/12/23 09:16:33;;;;;;;10.2;6.2;;;;;;;-0.93;68.73535;937.554;;;;
2021/12/23 09:18:58;;;;;;;9;5.4;;;;;;;-0.73;67.52246;937.361;;;;
2021/12/23 09:21:24;;;;;;;9.1;4.7;;;;;;;-0.7;67.2041;937.4595;;;;
2021/12/23 09:23:49;;;;;;;13.1;5.9;;;;;;;-0.76;66.85059;937.3304;;;;
2021/12/23 09:26:15;;;;;;;10.4;6.1;;;;;;;-0.47;67.07324;937.4069;;;;
2021/12/23 09:28:53;;;;;;;11.8;7;;;;;;;0.03;65.62695;937.3627;;;;
2021/12/23 09:33:33;;;;;;;30;13.2;;;;;;;-0.2;66.81738;937.35;;;;
2021/12/23 09:36:02;;;;;;;23.9;12;;;;;;;0.15;66.98242;937.3738;;;;
2021/12/23 09:38:28;;;;;;;17.6;9.4;;;;;;;0.49;65.57617;937.342;;;;
2021/12/23 09:40:52;;;;;;;11.9;7.2;;;;;;;0.76;63.54102;937.348;;;;
2021/12/23 09:43:18;;;;;;;13.4;7.1;;;;;;;0.7;62.98633;937.1409;;;;
2021/12/23 09:45:43;;;;;;;15.9;9.9;;;;;;;1.05;62.37988;937.1692;;;;
2021/12/23 09:48:08;;;;;;;16.8;8.5;;;;;;;1.3;62.50684;937.105;;;;
2021/12/23 09:50:37;;;;;;;35.2;19.2;;;;;;;1.37;62.76367;937.1613;;;;
2021/12/23 09:53:02;;;;;;;15.7;9.4;;;;;;;1.46;62.36133;937.0144;;;;
2021/12/23 09:55:28;;;;;;;18.6;9.5;;;;;;;1.49;62.5791;937.0952;;;;
2021/12/23 09:57:53;;;;;;;26.8;13.7;;;;;;;1.61;60.4502;937.1409;;;;
2021/12/23 10:00:20;;;;;;;41.1;23;;;;;;;1.68;59.40918;937.0403;;;;
2021/12/23 10:02:45;;;;;;;8.8;4.5;;;;;;;1.58;57.06934;937.0037;;;;
2021/12/23 10:05:10;;;;;;;8.6;4.4;;;;;;;1.58;55.36816;937.0146;;;;
2021/12/23 10:07:39;;;;;;;16.2;6.2;;;;;;;1.7;56.12305;937.0647;;;;
2021/12/23 10:10:09;;;;;;;12.2;4.9;;;;;;;1.88;56.0791;936.9587;;;;
2021/12/23 10:32:18;;;;;;;27;5.8;;;;;;;3.72;50.65918;936.6105;;;;
2021/12/23 10:39:25;;;;;;;28.6;4.8;;;;;;;3.85;49.70703;936.5385;;;;
2021/12/23 10:41:50;;;;;;;19.6;4.7;;;;;;;3.91;49.33203;936.4427;;;;
2021/12/23 10:44:17;;;;;;;29.4;6.2;;;;;;;3.77;49.31543;936.3727;;;;
2021/12/23 10:46:42;;;;;;;70.8;14.4;;;;;;;3.87;49.70898;936.3926;;;;
2021/12/23 10:49:24;;;;;;;36.7;9.6;;;;;;;4.1;49.97266;936.3741;;;;
2021/12/23 10:51:34;;;;;;;23;7.2;;;;;;;4.3;49.07422;936.3095;;;;
2021/12/23 10:54:19;;;;;;;43;9.1;;;;;;;4.53;48.99902;936.2495;;;;
2021/12/23 10:58:50;;;;;;;34;6.7;;;;;;;4.87;48.58887;936.2099;;;;
2021/12/23 11:01:27;;;;;;;27.8;6.1;;;;;;;4.91;47.12695;936.0973;;;;
2021/12/23 11:03:53;;;;;;;31.8;6.1;;;;;;;4.85;47.22266;936.0358;;;;
2021/12/23 11:06:23;;;;;;;24.4;5.1;;;;;;;4.71;46.82324;936.1617;;;;
2021/12/23 11:08:50;;;;;;;13.6;3.9;;;;;;;4.61;46.58594;936.147;;;;
2021/12/23 11:36:02;;;;;;;53.3;12.2;;;;;;;4.47;50.52344;935.7363;;;;
2021/12/23 11:38:11;;;;;;;20.9;8.7;;;;;;;4.37;49.92578;935.6739;;;;
2021/12/23 11:40:48;;;;;;;28.3;8.5;;;;;;;4.54;50.44141;935.5858;;;;
2021/12/23 11:43:13;;;;;;;32.6;9.4;;;;;;;4.74;50.375;935.5008;;;;
2021/12/23 11:45:15;;;;;;;48.3;11.5;;;;;;;4.78;50.72852;935.4246;;;;
2021/12/23 11:47:41;;;;;;;18.1;7.6;;;;;;;4.98;49.94141;935.4252;;;;
2021/12/23 11:50:05;;;;;;;39.3;9.9;;;;;;;4.85;49.94922;935.3069;;;;
2021/12/23 11:52:30;;;;;;;30.1;8.8;;;;;;;4.82;49.5957;935.2058;;;;
2021/12/23 11:54:55;;;;;;;23.4;7.4;;;;;;;4.74;48.75391;935.1406;;;;
2021/12/23 11:57:23;;;;;;;27.1;8.5;;;;;;;4.83;48.74121;935.0776;;;;
2021/12/23 11:59:48;;;;;;;15.4;5.9;;;;;;;5.03;47.52441;935.0712;;;;
2021/12/23 12:02:13;;;;;;;13;5.8;;;;;;;5.22;46.78906;935.0744;;;;
2021/12/23 12:04:38;;;;;;;27.5;7.6;;;;;;;5.12;46.78906;934.9636;;;;
2021/12/23 12:07:08;;;;;;;33.1;9;;;;;;;5.27;48.20313;934.9421;;;;
2021/12/23 12:09:33;;;;;;;20.8;8.8;;;;;;;5.85;46.46289;934.9278;;;;
2021/12/23 12:11:58;;;;;;;15.9;5.2;;;;;;;6.07;44.96191;934.8713;;;;
2021/12/23 12:14:25;;;;;;;18.6;5;;;;;;;6.23;43.49707;934.765;;;;
2021/12/23 12:16:53;;;;;;;22.7;5.9;;;;;;;6.4;44.30664;934.7328;;;;
2021/12/23 12:19:18;;;;;;;13.6;3.5;;;;;;;6.47;42.79688;934.7374;;;;
2021/12/23 12:21:46;;;;;;;32.4;6.5;;;;;;;6.63;42.78027;934.7067;;;;
2021/12/23 12:24:10;;;;;;;22;4.7;;;;;;;6.64;42.02246;934.6547;;;;
2021/12/23 12:26:37;;;;;;;19.9;7.5;;;;;;;6.77;41.69531;934.7211;;;;
2021/12/23 12:29:02;;;;;;;7.9;3.4;;;;;;;6.73;39.00977;934.6942;;;;
2021/12/23 12:31:27;;;;;;;30.2;6.2;;;;;;;6.85;40.50391;934.6167;;;;
2021/12/23 12:33:55;;;;;;;20.7;4.4;;;;;;;7.02;39.55762;934.5455;;;;
2021/12/23 12:36:17;;;;;;;12.2;3.6;;;;;;;7.04;38.95898;934.6551;;;;
2021/12/23 12:38:43;;;;;;;15.4;4;;;;;;;7.02;38.46973;934.5898;;;;
2021/12/23 12:41:08;;;;;;;13.1;4.6;;;;;;;7.07;40.16211;934.6658;;;;
2021/12/23 12:43:35;;;;;;;12.2;5.6;;;;;;;6.94;41.01074;934.642;;;;
2021/12/23 12:45:58;;;;;;;16.3;5.7;;;;;;;6.88;41.85352;934.6077;;;;
2021/12/23 12:48:23;;;;;;;19.7;5.6;;;;;;;6.81;41.56348;934.6014;;;;
2021/12/23 12:50:48;;;;;;;7.8;2.6;;;;;;;6.96;39.23438;934.6281;;;;
2021/12/23 12:53:18;;;;;;;12.6;3.3;;;;;;;7.1;40.19922;934.6269;;;;
2021/12/23 12:55:39;;;;;;;9.3;2.4;;;;;;;7.51;39.69336;934.6147;;;;
2021/12/23 12:58:04;;;;;;;6.6;1.7;;;;;;;8.07;35.4541;934.6011;;;;
2021/12/23 13:00:32;;;;;;;6.2;1.9;;;;;;;8.45;35.13281;934.5787;;;;
2021/12/23 13:02:54;;;;;;;8.9;2.3;;;;;;;8.73;36.55371;934.4582;;;;
2021/12/23 13:05:19;;;;;;;3.9;1.7;;;;;;;8.93;34.36426;934.5248;;;;
2021/12/23 13:07:45;;;;;;;10.9;2.5;;;;;;;9.06;35.30762;934.4119;;;;
2021/12/23 13:10:18;;;;;;;5.1;1.7;;;;;;;9.08;34.94531;934.474;;;;
2021/12/23 13:12:44;;;;;;;6.1;2.1;;;;;;;9.09;37.08398;934.4327;;;;
2021/12/23 13:15:16;;;;;;;5.9;2.1;;;;;;;9.07;36.60547;934.4119;;;;
2021/12/23 13:17:33;;;;;;;4.4;2.2;;;;;;;9.07;36.48047;934.416;;;;
2021/12/23 13:20:01;;;;;;;7;2;;;;;;;9.07;36.52637;934.3119;;;;
2021/12/23 13:22:26;;;;;;;8.5;3.1;;;;;;;8.93;36.76367;934.3461;;;;
2021/12/23 13:24:51;;;;;;;6;2.3;;;;;;;8.96;38.64355;934.4235;;;;
2021/12/23 13:27:16;;;;;;;5.4;2.6;;;;;;;9;39.11426;934.3586;;;;
2021/12/23 13:29:43;;;;;;;9.3;2.8;;;;;;;9.18;40.4502;934.3652;;;;
2021/12/23 13:32:07;;;;;;;19.4;3.7;;;;;;;9.39;39.68555;934.3203;;;;
2021/12/23 13:34:33;;;;;;;21.1;6.5;;;;;;;9.1;39.70313;934.3066;;;;
2021/12/23 13:37:01;;;;;;;13.1;4.4;;;;;;;8.39;40.77441;934.3026;;;;
2021/12/23 13:39:25;;;;;;;14.7;5.3;;;;;;;8;40.91895;934.3881;;;;
2021/12/23 13:41:52;;;;;;;16.2;6.3;;;;;;;7.58;41.71777;934.4288;;;;
2021/12/23 13:44:17;;;;;;;16.5;7.7;;;;;;;7.39;42.52734;934.3608;;;;
2021/12/23 13:46:42;;;;;;;10.7;5.8;;;;;;;7.07;43.33301;934.3926;;;;
2021/12/23 13:49:07;;;;;;;26.7;8.3;;;;;;;6.9;45.86426;934.4261;;;;
2021/12/23 13:51:32;;;;;;;25.2;10.2;;;;;;;7.04;46.01465;934.4136;;;;
2021/12/23 13:53:58;;;;;;;25.7;7.8;;;;;;;7.03;46.10449;934.4403;;;;
2021/12/23 13:56:23;;;;;;;33.8;9.8;;;;;;;6.86;51.24805;934.3969;;;;
2021/12/23 13:58:50;;;;;;;20.5;7.6;;;;;;;6.83;51.96875;934.3521;;;;
2021/12/23 14:01:17;;;;;;;22.6;8.8;;;;;;;6.84;54.9248;934.225;;;;
2021/12/23 14:03:43;;;;;;;28.4;9.4;;;;;;;6.81;54.02734;934.2751;;;;
2021/12/23 14:06:09;;;;;;;21.9;9.4;;;;;;;6.59;53.53516;934.2358;;;;
2021/12/23 14:08:34;;;;;;;23.1;8.6;;;;;;;6.55;54.33301;934.2659;;;;
2021/12/23 14:11:04;;;;;;;18.3;8.5;;;;;;;6.56;51.65332;934.3293;;;;
2021/12/23 14:13:28;;;;;;;20;9.8;;;;;;;6.43;51.52539;934.2932;;;;
2021/12/23 14:16:03;;;;;;;26.8;14.2;;;;;;;6.24;53.77344;934.3809;;;;
2021/12/23 14:18:46;;;;;;;26.9;14.4;;;;;;;6.03;53.81543;934.4659;;;;
2021/12/23 14:23:25;;;;;;;29.3;15.7;;;;;;;5.16;55.43164;934.5527;;;;
2021/12/23 14:25:58;;;;;;;30.5;14.4;;;;;;;5.16;56.55859;934.6277;;;;
2021/12/23 14:28:21;;;;;;;21.3;12.7;;;;;;;5.16;55.70215;934.5708;;;;
2021/12/23 14:30:50;;;;;;;30.6;14.3;;;;;;;4.99;57.76465;934.5712;;;;
2021/12/23 14:33:15;;;;;;;16.9;10.8;;;;;;;5.03;56.46289;934.5016;;;;
2021/12/23 14:35:40;;;;;;;23.4;11.8;;;;;;;4.89;58.12305;934.5742;;;;
2021/12/23 14:38:06;;;;;;;26.5;10.9;;;;;;;4.92;57.51953;934.5916;;;;
2021/12/23 14:40:35;;;;;;;23.5;11.1;;;;;;;4.84;57.99316;934.611;;;;
2021/12/23 14:43:03;;;;;;;21.7;11.1;;;;;;;4.74;58.31641;934.6049;;;;
2021/12/23 14:45:28;;;;;;;25;14.7;;;;;;;4.55;58.8418;934.5825;;;;
2021/12/23 14:47:53;;;;;;;32.1;13.9;;;;;;;4.28;58.71582;934.6926;;;;
2021/12/23 14:50:19;;;;;;;30.5;13.2;;;;;;;4.2;57.70215;934.5869;;;;
2021/12/23 14:52:43;;;;;;;26.3;13.6;;;;;;;4.03;58.12988;934.5948;;;;
2021/12/23 14:55:09;;;;;;;32.7;15.3;;;;;;;4.03;58.56934;934.6225;;;;
2021/12/23 14:57:35;;;;;;;39;17.1;;;;;;;3.8;59.78418;934.6169;;;;
2021/12/23 14:59:59;;;;;;;60.4;20.2;;;;;;;3.89;60.33594;934.6152;;;;
2021/12/23 15:02:24;;;;;;;35.3;17.6;;;;;;;3.88;60.39258;934.614;;;;
2021/12/23 15:04:51;;;;;;;37.9;17.8;;;;;;;3.77;60.7002;934.6247;;;;
2021/12/23 15:07:16;;;;;;;42.2;17.8;;;;;;;3.56;61.13086;934.5869;;;;
2021/12/23 15:09:44;;;;;;;27;16;;;;;;;3.58;61.61816;934.5073;;;;
2021/12/23 15:12:08;;;;;;;31.6;15;;;;;;;3.63;61.99707;934.3862;;;;
2021/12/23 15:14:34;;;;;;;40.6;17;;;;;;;3.6;62.375;934.4739;;;;
2021/12/23 15:17:11;;;;;;;25.5;13.8;;;;;;;3.59;62.43848;934.3696;;;;
2021/12/23 15:19:35;;;;;;;34.5;16;;;;;;;3.5;63.07813;934.3892;;;;
2021/12/23 15:21:55;;;;;;;39.6;18.5;;;;;;;3.54;63.92578;934.3029;;;;
2021/12/23 15:24:22;;;;;;;47.6;20.3;;;;;;;3.62;63.93945;934.4702;;;;
2021/12/23 15:26:48;;;;;;;43.2;23.1;;;;;;;3.69;63.90332;934.3964;;;;
2021/12/23 15:29:13;;;;;;;38;18;;;;;;;3.71;62.7832;934.4341;;;;
2021/12/23 15:31:40;;;;;;;43.4;21.8;;;;;;;3.67;63.77734;934.3614;;;;
2021/12/23 15:34:08;;;;;;;37.6;20.5;;;;;;;3.64;64.12207;934.4306;;;;
2021/12/23 15:36:30;;;;;;;30.6;18.1;;;;;;;3.59;64.37207;934.3541;;;;
2021/12/23 15:38:57;;;;;;;48.3;20.1;;;;;;;3.65;64.4375;934.3797;;;;
2021/12/23 15:41:24;;;;;;;57.1;24.6;;;;;;;3.56;64.79297;934.312;;;;
2021/12/23 15:43:49;;;;;;;40.6;18.8;;;;;;;3.56;65.77051;934.3027;;;;
2021/12/23 15:46:15;;;;;;;33.2;19.6;;;;;;;3.57;65.32422;934.2062;;;;
2021/12/23 15:48:41;;;;;;;129.6;74.5;;;;;;;3.57;65.34668;934.418;;;;
2021/12/23 15:51:06;;;;;;;36.5;21.9;;;;;;;3.45;65.99121;934.2744;;;;
2021/12/23 15:53:31;;;;;;;40;22.9;;;;;;;3.5;67.26758;934.334;;;;
2021/12/23 15:56:01;;;;;;;48.6;26.4;;;;;;;3.53;66.74414;934.1475;;;;
2021/12/23 15:58:24;;;;;;;80.1;36.7;;;;;;;3.47;69.04785;934.2803;;;;
2021/12/23 16:00:51;;;;;;;49.1;27.8;;;;;;;3.46;67.11523;934.2684;;;;
2021/12/23 16:03:15;;;;;;;86.7;48.1;;;;;;;3.48;67.32031;934.1799;;;;
2021/12/23 16:08:08;;;;;;;54;27.5;;;;;;;3.37;68.34766;934.2718;;;;
2021/12/23 16:10:33;;;;;;;83.3;45.8;;;;;;;3.36;68.12012;934.1809;;;;
2021/12/23 16:13:00;;;;;;;147.3;77.3;;;;;;;3.36;70.14258;934.1873;;;;
2021/12/23 16:15:25;;;;;;;60.8;31.7;;;;;;;3.3;68.99805;934.2317;;;;
2021/12/23 16:17:57;;;;;;;130.5;75.3;;;;;;;3.36;68.77148;934.265;;;;
2021/12/23 16:20:28;;;;;;;64.9;37.3;;;;;;;3.21;71.74512;934.337;;;;
2021/12/23 16:22:56;;;;;;;57.9;35.1;;;;;;;3.26;69.08105;934.358;;;;
2021/12/23 16:25:21;;;;;;;52;26.9;;;;;;;3.34;68.32129;934.3441;;;;
2021/12/23 16:27:46;;;;;;;141.1;82.3;;;;;;;3.29;69.16699;934.2247;;;;
2021/12/23 16:30:14;;;;;;;72.4;42.5;;;;;;;3.31;72.19043;934.4094;;;;
2021/12/23 16:32:40;;;;;;;57.4;33.8;;;;;;;3.26;71.83301;934.1072;;;;
2021/12/23 16:35:05;;;;;;;56.8;31.2;;;;;;;3.15;70.05078;934.2325;;;;
2021/12/23 16:37:31;;;;;;;75.1;45.1;;;;;;;2.95;71.0498;934.183;;;;
2021/12/23 16:39:56;;;;;;;44.4;23.8;;;;;;;3.05;72.71582;934.1053;;;;
2021/12/23 16:42:22;;;;;;;41.8;24.3;;;;;;;3.21;69.0957;934.0898;;;;